Time;durP1;ratioP1;P1;durP2;ratioP2;P2;SDS_P1;SDS_P2;PMS_P1;PMS_P2;Temp;Humidity;BMP_temperature;BMP_pressure;BME280_temperature;BME280_humidity;BME280_pressure;Samples;Min_cycle;Max_cycle;Signal;HPM_P1;HPM_P2
2023/11/17 08:36:39;;;;;;;15.40;5.05;;;;;;;4.00;100.00;96852.25;2086560;28;20577;-70
2023/11/17 08:37:41;;;;;;;8.43;4.38;;;;;;;4.06;100.00;96836.66;2077349;28;20201;-70
2023/11/17 08:38:42;;;;;;;7.75;4.30;;;;;;;4.13;100.00;96840.03;2078092;28;20286;-70
2023/11/17 08:44:08;;;;;;;6.05;4.20;;;;;;;4.34;100.00;96850.03;2084100;28;20544;-70
2023/11/17 08:45:12;;;;;;;6.68;4.20;;;;;;;4.48;100.00;96849.78;2081044;28;20764;-70
2023/11/17 08:46:14;;;;;;;5.00;3.15;;;;;;;4.69;100.00;96852.88;2078359;28;20220;-70
2023/11/17 08:47:16;;;;;;;7.70;4.10;;;;;;;5.06;100.00;96849.59;2081069;28;20684;-64
2023/11/17 08:48:18;;;;;;;5.80;3.83;;;;;;;5.13;100.00;96851.19;2074724;28;20245;-65
2023/11/17 08:49:20;;;;;;;7.13;4.03;;;;;;;5.12;100.00;96848.63;2082547;28;20872;-64
2023/11/17 12:11:44;;;;;;;1.92;0.85;;;;;;;4.66;100.00;96912.41;2081958;28;20552;-65
2023/11/17 12:14:15;;;;;;;3.47;0.70;;;;;;;4.64;100.00;96906.41;2083733;28;20560;-64
2023/11/17 12:16:48;;;;;;;3.75;0.90;;;;;;;4.82;100.00;96907.84;2097579;27;20559;-66
2023/11/17 12:17:58;;;;;;;1.05;0.60;;;;;;;4.80;100.00;96902.69;2088551;28;20562;-66
2023/11/17 12:19:03;;;;;;;1.35;0.65;;;;;;;4.88;100.00;96903.41;2096787;28;20195;-66
2023/11/17 12:20:25;;;;;;;1.85;0.60;;;;;;;5.05;100.00;96903.09;2096318;28;20698;-66
2023/11/17 12:21:27;;;;;;;1.40;0.60;;;;;;;5.00;99.80;96906.66;2087907;28;20228;-66
2023/11/17 12:22:57;;;;;;;1.85;0.80;;;;;;;5.16;100.00;96902.88;2080859;28;20319;-66
2023/11/17 12:24:05;;;;;;;1.10;0.70;;;;;;;5.21;98.88;96900.22;2078098;28;20204;-66
2023/11/17 12:25:11;;;;;;;2.65;0.70;;;;;;;5.25;99.22;96901.84;2075913;28;20200;-66
2023/11/17 12:26:16;;;;;;;1.30;0.77;;;;;;;5.32;99.63;96903.44;2076482;28;20498;-66
2023/11/17 12:27:21;;;;;;;2.25;1.10;;;;;;;5.51;99.24;96896.16;2079874;28;20225;-66
2023/11/17 12:28:22;;;;;;;1.40;0.70;;;;;;;5.45;97.39;96908.41;2080366;28;20289;-66
2023/11/17 12:29:26;;;;;;;2.85;0.68;;;;;;;5.48;97.08;96903.16;2079323;28;20205;-66
2023/11/17 12:30:29;;;;;;;1.30;0.57;;;;;;;5.51;97.51;96900.47;2077328;28;20288;-66
2023/11/17 12:31:31;;;;;;;6.25;0.88;;;;;;;5.48;97.69;96896.22;2080130;28;20200;-66
2023/11/17 12:32:33;;;;;;;1.55;0.65;;;;;;;5.60;97.85;96897.72;2076552;28;20295;-67
2023/11/17 12:33:35;;;;;;;1.33;0.70;;;;;;;5.58;97.96;96896.03;2081638;28;20193;-66
2023/11/17 12:34:44;;;;;;;2.08;0.80;;;;;;;5.72;98.69;96905.22;2081209;28;20197;-66
2023/11/17 12:35:47;;;;;;;1.63;0.63;;;;;;;5.76;98.22;96902.56;2081148;28;20196;-66
2023/11/17 12:36:54;;;;;;;1.20;0.63;;;;;;;5.73;97.85;96903.50;2080613;28;20217;-66
2023/11/17 12:37:56;;;;;;;5.57;0.60;;;;;;;5.58;96.86;96891.69;2079686;28;20196;-63
2023/11/17 14:24:07;;;;;;;6.85;2.38;;;;;;;5.00;100.00;96971.34;2089980;28;20909;-68
2023/11/17 14:25:11;;;;;;;6.10;2.70;;;;;;;5.26;100.00;96978.66;2091626;28;20199;-67
2023/11/17 14:26:12;;;;;;;4.20;2.20;;;;;;;5.20;100.00;96977.03;2087192;28;20205;-69
2023/11/17 14:27:14;;;;;;;5.18;2.20;;;;;;;5.60;100.00;96974.56;2079268;28;20281;-69
2023/11/17 14:28:16;;;;;;;4.30;1.98;;;;;;;5.51;100.00;96985.97;2081020;28;20232;-68
2023/11/17 14:29:19;;;;;;;5.65;2.00;;;;;;;6.06;100.00;96973.69;2080927;28;20258;-69
2023/11/17 14:30:25;;;;;;;7.55;2.45;;;;;;;6.15;99.47;96986.44;2079245;28;20209;-69
2023/11/17 14:31:26;;;;;;;3.58;2.00;;;;;;;6.27;98.18;96982.75;2081255;28;20209;-69
2023/11/17 14:32:28;;;;;;;5.90;1.88;;;;;;;5.87;98.25;96968.00;2069100;28;20232;-69
2023/11/17 14:33:32;;;;;;;3.95;2.08;;;;;;;5.82;98.64;96980.19;2075837;28;20228;-69
